Time;durP1;ratioP1;P1;durP2;ratioP2;P2;SDS_P1;SDS_P2;PMS_P1;PMS_P2;Temp;Humidity;BMP_temperature;BMP_pressure;BME280_temperature;BME280_humidity;BME280_pressure;Samples;Min_cycle;Max_cycle;Signal;HPM_P1;HPM_P2
2022/10/01 00:00:56;;;;;;;;;;;;;;;28.03;38.63;101039.94;5075567;28;1087;-48
2022/10/01 00:03:22;;;;;;;;;;;;;;;27.94;38.49;101044.56;5076632;28;1143;-47
2022/10/01 00:05:56;;;;;;;;;;;;;;;28.14;38.09;101052.19;5076626;28;1115;-52
2022/10/01 00:08:22;;;;;;;;;;;;;;;28.07;38.08;101054.75;5076381;28;1154;-53
2022/10/01 00:10:47;;;;;;;;;;;;;;;28.07;37.53;101054.75;5068585;28;1154;-48
2022/10/01 00:13:12;;;;;;;;;;;;;;;28.06;37.95;101053.09;5076240;28;2620;-47
2022/10/01 00:15:38;;;;;;;;;;;;;;;27.78;38.20;101053.66;5076212;28;1087;-45
2022/10/01 00:18:03;;;;;;;;;;;;;;;27.89;37.85;101053.22;5072142;28;1128;-44
2022/10/01 00:20:29;;;;;;;;;;;;;;;27.86;38.27;101050.88;5055364;28;1192;-44
2022/10/01 00:22:54;;;;;;;;;;;;;;;27.99;37.96;101055.69;5072382;28;1199;-45
2022/10/01 00:25:19;;;;;;;;;;;;;;;27.93;38.13;101059.94;5076169;28;1059;-49
2022/10/01 00:27:48;;;;;;;;;;;;;;;28.00;37.70;101068.16;5076339;28;1139;-51
2022/10/01 00:30:13;;;;;;;;;;;;;;;27.95;38.58;101065.16;5076445;28;1103;-49
2022/10/01 00:32:40;;;;;;;;;;;;;;;27.98;38.04;101070.22;5076143;28;1910;-51
2022/10/01 00:35:08;;;;;;;;;;;;;;;27.84;38.22;101061.84;5075684;28;1190;-47
2022/10/01 00:37:36;;;;;;;;;;;;;;;27.73;38.58;101063.13;5075308;28;1265;-46
2022/10/01 00:40:02;;;;;;;;;;;;;;;27.88;37.96;101062.34;5064247;28;1154;-44
2022/10/01 00:42:28;;;;;;;;;;;;;;;27.84;37.65;101077.25;5060022;28;2225;-45
2022/10/01 00:44:54;;;;;;;;;;;;;;;27.82;38.49;101069.34;5066157;28;1170;-46
2022/10/01 00:47:27;;;;;;;;;;;;;;;27.26;39.66;101076.53;5067297;28;1168;-49
2022/10/01 00:49:59;;;;;;;;;;;;;;;27.09;39.82;101066.84;5058157;28;1147;-48
2022/10/01 00:52:24;;;;;;;;;;;;;;;27.04;39.90;101071.91;5058168;28;1965;-49
2022/10/01 00:55:17;;;;;;;;;;;;;;;26.98;40.03;101070.72;5076471;28;1190;-48
2022/10/01 00:57:42;;;;;;;;;;;;;;;26.96;39.69;101067.38;5069158;28;1538;-53
2022/10/01 01:00:08;;;;;;;;;;;;;;;26.89;39.84;101070.75;5054891;28;951;-45
2022/10/01 01:02:33;;;;;;;;;;;;;;;26.89;39.70;101068.03;5075517;28;1103;-50
2022/10/01 01:04:59;;;;;;;;;;;;;;;26.88;39.59;101073.63;5076301;28;1138;-47
2022/10/01 01:07:24;;;;;;;;;;;;;;;26.84;39.82;101065.03;5047998;28;1942;-47
2022/10/01 01:09:50;;;;;;;;;;;;;;;26.82;39.94;101060.81;5075868;28;1134;-51
2022/10/01 01:12:34;;;;;;;;;;;;;;;26.86;39.79;101059.47;5054298;28;1991;-44
2022/10/01 01:15:03;;;;;;;;;;;;;;;26.83;39.39;101057.09;5061375;28;1198;-46
2022/10/01 01:17:49;;;;;;;;;;;;;;;26.76;39.82;101055.09;5075453;28;1059;-51
2022/10/01 01:20:23;;;;;;;;;;;;;;;26.76;39.39;101054.25;5061483;28;1360;-44
2022/10/01 01:22:49;;;;;;;;;;;;;;;26.70;39.45;101047.69;5063273;28;1171;-50
2022/10/01 01:25:18;;;;;;;;;;;;;;;26.71;39.44;101052.06;5047886;28;1288;-47
2022/10/01 01:28:02;;;;;;;;;;;;;;;26.71;39.36;101043.97;5058215;28;1155;-50
2022/10/01 01:30:29;;;;;;;;;;;;;;;26.66;39.32;101043.66;5064289;28;1151;-51
2022/10/01 01:33:00;;;;;;;;;;;;;;;26.52;38.54;101048.75;5040731;28;1991;-48
2022/10/01 01:35:31;;;;;;;;;;;;;;;26.61;38.34;101041.47;5059083;28;991;-48
2022/10/01 01:37:58;;;;;;;;;;;;;;;27.08;37.59;101048.94;5044580;28;1128;-44
2022/10/01 01:40:23;;;;;;;;;;;;;;;27.28;37.57;101037.72;5052613;28;1237;-49
2022/10/01 01:42:48;;;;;;;;;;;;;;;27.38;36.98;101036.47;5046597;28;1812;-47
2022/10/01 01:45:16;;;;;;;;;;;;;;;27.50;36.67;101036.91;5069307;28;1139;-48
2022/10/01 01:47:41;;;;;;;;;;;;;;;27.49;36.94;101035.22;5069992;28;1132;-55
2022/10/01 01:50:07;;;;;;;;;;;;;;;27.53;36.97;101038.41;5061432;28;1099;-52
2022/10/01 01:52:32;;;;;;;;;;;;;;;27.58;37.04;101044.13;5078519;28;1969;-57
2022/10/01 01:54:57;;;;;;;;;;;;;;;27.60;36.68;101043.94;5060756;28;1198;-58
2022/10/01 01:57:23;;;;;;;;;;;;;;;27.63;36.76;101046.28;5078850;28;1189;-53
2022/10/01 01:59:48;;;;;;;;;;;;;;;27.62;36.42;101040.03;5078958;28;1135;-49
2022/10/01 02:02:24;;;;;;;;;;;;;;;27.58;36.31;101046.81;5060764;28;1158;-47
2022/10/01 02:04:54;;;;;;;;;;;;;;;27.58;36.67;101043.25;5064442;28;1209;-52
2022/10/01 02:07:38;;;;;;;;;;;;;;;27.56;36.71;101050.72;5078459;28;1150;-51
2022/10/01 02:10:09;;;;;;;;;;;;;;;27.54;36.65;101048.22;5049977;28;1136;-55
2022/10/01 02:12:43;;;;;;;;;;;;;;;27.59;37.07;101053.06;5051534;28;2016;-50
2022/10/01 02:15:08;;;;;;;;;;;;;;;27.54;37.15;101058.16;5058375;28;1178;-51
2022/10/01 02:17:49;;;;;;;;;;;;;;;27.59;37.15;101058.47;5058734;28;1108;-47
2022/10/01 02:20:17;;;;;;;;;;;;;;;27.66;36.62;101059.41;5040592;28;1167;-48
2022/10/01 02:22:46;;;;;;;;;;;;;;;27.57;36.61;101055.09;5058561;28;1127;-49
2022/10/01 02:25:11;;;;;;;;;;;;;;;27.51;37.02;101053.94;5060158;28;1139;-44
2022/10/01 02:27:44;;;;;;;;;;;;;;;27.05;37.33;101050.13;5060474;28;1135;-48
2022/10/01 02:30:09;;;;;;;;;;;;;;;26.91;37.51;101057.06;5060381;28;1202;-45
2022/10/01 02:32:36;;;;;;;;;;;;;;;26.86;37.55;101049.50;5077404;28;1906;-44
2022/10/01 02:35:01;;;;;;;;;;;;;;;26.83;37.17;101054.41;5070725;28;1213;-44
2022/10/01 02:37:27;;;;;;;;;;;;;;;26.87;37.08;101053.06;5060327;28;1209;-46
2022/10/01 02:39:53;;;;;;;;;;;;;;;26.88;37.10;101055.56;5060374;28;1171;-45
2022/10/01 02:42:19;;;;;;;;;;;;;;;26.88;37.19;101063.66;5056582;28;2328;-47
2022/10/01 02:44:44;;;;;;;;;;;;;;;26.92;37.32;101055.22;5039695;28;1159;-43
2022/10/01 02:47:18;;;;;;;;;;;;;;;26.85;37.27;101060.47;5055195;28;1202;-46
2022/10/01 02:49:44;;;;;;;;;;;;;;;27.00;37.32;101055.19;5078148;28;1114;-47
2022/10/01 02:52:15;;;;;;;;;;;;;;;27.33;36.71;101054.22;5077738;28;1898;-47
2022/10/01 02:54:57;;;;;;;;;;;;;;;27.41;37.33;101056.88;5078087;28;1147;-45
2022/10/01 02:57:23;;;;;;;;;;;;;;;27.46;37.09;101050.97;5044718;28;1158;-49
2022/10/01 02:59:52;;;;;;;;;;;;;;;27.49;36.94;101054.13;5047037;28;841;-46
2022/10/01 03:02:18;;;;;;;;;;;;;;;27.51;36.86;101054.78;5077708;28;1114;-48
2022/10/01 03:04:43;;;;;;;;;;;;;;;27.63;36.72;101065.19;5060202;28;1171;-50
2022/10/01 03:07:08;;;;;;;;;;;;;;;27.61;36.92;101065.38;5067144;28;1198;-51
2022/10/01 03:09:35;;;;;;;;;;;;;;;27.69;36.89;101060.97;5077102;28;1285;-44
2022/10/01 03:12:00;;;;;;;;;;;;;;;27.67;37.02;101057.56;5071588;28;2392;-56
2022/10/01 03:14:26;;;;;;;;;;;;;;;27.67;37.36;101060.28;5056995;28;1103;-49
2022/10/01 03:16:51;;;;;;;;;;;;;;;27.60;37.03;101057.44;5065187;28;1151;-59
2022/10/01 03:19:16;;;;;;;;;;;;;;;27.57;36.93;101068.63;5077524;28;1099;-61
2022/10/01 03:21:42;;;;;;;;;;;;;;;27.66;37.06;101064.81;5057184;28;1196;-61
2022/10/01 03:24:07;;;;;;;;;;;;;;;27.77;36.72;101071.72;5065651;28;1202;-53
2022/10/01 03:26:32;;;;;;;;;;;;;;;27.86;36.33;101078.75;5077117;28;1139;-47
2022/10/01 03:28:58;;;;;;;;;;;;;;;27.96;36.50;101081.22;5077264;28;1154;-48
2022/10/01 03:31:23;;;;;;;;;;;;;;;27.70;36.03;101076.16;5077104;28;1150;-50
2022/10/01 03:33:48;;;;;;;;;;;;;;;27.69;36.64;101080.75;5076849;28;1977;-56
2022/10/01 03:36:14;;;;;;;;;;;;;;;27.65;37.00;101081.22;5076255;28;1186;-51
2022/10/01 03:38:39;;;;;;;;;;;;;;;27.64;36.71;101091.22;5076516;28;1178;-53
2022/10/01 03:41:04;;;;;;;;;;;;;;;27.60;36.29;101096.13;5076833;28;1130;-50
2022/10/01 03:43:30;;;;;;;;;;;;;;;27.56;36.22;101108.28;5076539;28;2299;-49
2022/10/01 03:45:55;;;;;;;;;;;;;;;27.66;37.40;101102.66;5067972;28;1155;-52
2022/10/01 03:48:21;;;;;;;;;;;;;;;27.55;35.89;101090.41;5064841;28;1100;-59
2022/10/01 03:50:56;;;;;;;;;;;;;;;27.18;36.22;101097.34;5076779;28;1228;-51
2022/10/01 03:53:21;;;;;;;;;;;;;;;26.91;36.22;101100.25;5076056;28;1897;-58
2022/10/01 03:55:47;;;;;;;;;;;;;;;26.73;36.34;101106.72;5076606;28;1156;-54
2022/10/01 03:58:12;;;;;;;;;;;;;;;26.69;36.48;101100.00;5076082;28;1138;-49
2022/10/01 04:00:38;;;;;;;;;;;;;;;26.77;36.36;101104.53;5076071;28;1261;-53
2022/10/01 04:03:03;;;;;;;;;;;;;;;26.61;36.66;101097.31;5076235;28;1090;-49
2022/10/01 04:05:28;;;;;;;;;;;;;;;26.38;36.75;101098.00;5076601;28;1084;-44
2022/10/01 04:07:53;;;;;;;;;;;;;;;26.36;37.15;101092.78;5077095;28;1210;-47
2022/10/01 04:10:19;;;;;;;;;;;;;;;26.60;36.64;101109.94;5063462;28;1146;-43
2022/10/01 04:12:44;;;;;;;;;;;;;;;26.70;36.75;101117.88;5059018;28;2265;-42
2022/10/01 04:15:09;;;;;;;;;;;;;;;26.81;36.46;101119.34;5055365;28;1025;-42
2022/10/01 04:17:35;;;;;;;;;;;;;;;26.63;36.60;101119.53;5070572;28;1170;-42
2022/10/01 04:20:00;;;;;;;;;;;;;;;26.61;36.45;101117.03;5056084;28;1480;-42
2022/10/01 04:22:26;;;;;;;;;;;;;;;26.55;36.75;101117.72;5070108;28;1234;-42
2022/10/01 04:24:52;;;;;;;;;;;;;;;26.37;37.24;101120.59;5066987;28;1059;-43
2022/10/01 04:27:18;;;;;;;;;;;;;;;26.28;37.40;101117.00;5062688;28;1134;-42
2022/10/01 04:29:43;;;;;;;;;;;;;;;26.33;36.95;101114.69;5073410;28;1218;-42
2022/10/01 04:32:08;;;;;;;;;;;;;;;26.39;36.92;101110.47;5067001;28;1906;-43
2022/10/01 04:34:52;;;;;;;;;;;;;;;26.33;37.09;101112.00;5056174;28;1159;-43
2022/10/01 04:37:17;;;;;;;;;;;;;;;26.44;36.49;101115.38;5069210;28;917;-42
2022/10/01 04:39:43;;;;;;;;;;;;;;;26.59;36.34;101115.53;5074433;28;1131;-43
2022/10/01 04:42:08;;;;;;;;;;;;;;;26.53;36.50;101117.88;5055712;28;2404;-44
2022/10/01 04:44:34;;;;;;;;;;;;;;;26.60;36.49;101106.41;5069816;28;1218;-41
2022/10/01 04:46:59;;;;;;;;;;;;;;;26.79;35.90;101097.09;5070374;28;1286;-42
2022/10/01 04:49:24;;;;;;;;;;;;;;;26.74;36.31;101099.47;5069323;28;885;-42
2022/10/01 04:51:50;;;;;;;;;;;;;;;26.82;36.39;101104.84;5058141;28;1182;-43
2022/10/01 04:54:15;;;;;;;;;;;;;;;26.88;36.50;101106.00;5056307;28;1910;-42
2022/10/01 04:56:40;;;;;;;;;;;;;;;26.95;36.09;101109.72;5055878;28;1143;-45
2022/10/01 04:59:06;;;;;;;;;;;;;;;26.92;36.59;101110.06;5055903;28;1132;-42
2022/10/01 05:01:31;;;;;;;;;;;;;;;26.99;36.50;101107.50;5069296;28;1108;-42
2022/10/01 05:03:56;;;;;;;;;;;;;;;26.97;36.48;101115.78;5056630;28;1151;-42
2022/10/01 05:06:22;;;;;;;;;;;;;;;26.96;36.85;101116.78;5055694;28;1175;-42
2022/10/01 05:08:48;;;;;;;;;;;;;;;27.09;36.79;101121.66;5073738;28;1164;-45
2022/10/01 05:11:13;;;;;;;;;;;;;;;27.14;36.67;101124.69;5059504;28;1095;-45
2022/10/01 05:13:39;;;;;;;;;;;;;;;27.15;36.77;101128.25;5073668;28;2539;-42
2022/10/01 05:16:04;;;;;;;;;;;;;;;27.27;37.08;101128.72;5079890;28;1170;-43
2022/10/01 05:18:29;;;;;;;;;;;;;;;27.38;36.56;101135.56;5079881;28;1072;-43
2022/10/01 05:20:55;;;;;;;;;;;;;;;27.31;36.20;101135.44;5063397;28;1220;-44
2022/10/01 05:23:20;;;;;;;;;;;;;;;27.33;36.54;101122.59;5059970;28;1198;-45
2022/10/01 05:25:45;;;;;;;;;;;;;;;27.29;37.11;101113.19;5059145;28;965;-42
2022/10/01 05:28:12;;;;;;;;;;;;;;;27.45;37.21;101117.66;5059703;28;1286;-43
2022/10/01 05:30:37;;;;;;;;;;;;;;;27.42;36.57;101118.00;5059553;28;1194;-41
2022/10/01 05:33:03;;;;;;;;;;;;;;;27.59;36.09;101126.84;5059068;28;1971;-42
2022/10/01 05:35:28;;;;;;;;;;;;;;;27.68;35.74;101126.81;5059474;28;1163;-41
2022/10/01 05:37:54;;;;;;;;;;;;;;;27.75;35.60;101133.22;5073513;28;1228;-42
2022/10/01 05:40:19;;;;;;;;;;;;;;;27.80;35.71;101135.38;5061536;28;1096;-42
2022/10/01 05:42:45;;;;;;;;;;;;;;;27.89;35.32;101136.19;5064708;28;2238;-41
2022/10/01 05:45:11;;;;;;;;;;;;;;;27.94;35.21;101136.50;5059162;28;1075;-41
2022/10/01 05:47:37;;;;;;;;;;;;;;;28.02;35.37;101146.41;5059328;28;1060;-42
2022/10/01 05:50:02;;;;;;;;;;;;;;;27.78;36.01;101153.66;5077128;28;1246;-41
2022/10/01 05:52:27;;;;;;;;;;;;;;;27.81;36.04;101154.13;5078605;28;1968;-41
2022/10/01 05:54:53;;;;;;;;;;;;;;;27.82;35.41;101153.13;5079087;28;1147;-41
2022/10/01 05:57:18;;;;;;;;;;;;;;;27.98;35.26;101152.19;5079136;28;1170;-41
2022/10/01 05:59:43;;;;;;;;;;;;;;;28.04;35.79;101145.22;5065183;28;1138;-44
2022/10/01 06:02:08;;;;;;;;;;;;;;;28.43;34.94;101159.66;5073320;28;1088;-41
2022/10/01 06:04:34;;;;;;;;;;;;;;;28.48;34.68;101161.81;5068539;28;2362;-45
2022/10/01 06:06:59;;;;;;;;;;;;;;;28.27;34.72;101157.03;5079268;28;1185;-42
2022/10/01 06:09:25;;;;;;;;;;;;;;;28.15;34.92;101160.19;5078910;28;1094;-42
2022/10/01 06:11:50;;;;;;;;;;;;;;;28.27;35.36;101152.47;5078704;28;1186;-43
2022/10/01 06:14:15;;;;;;;;;;;;;;;28.32;34.69;101152.78;5078354;28;1910;-45
2022/10/01 06:16:41;;;;;;;;;;;;;;;28.36;34.95;101150.59;5078762;28;1498;-43
2022/10/01 06:19:06;;;;;;;;;;;;;;;28.39;35.12;101136.69;5077592;28;1142;-43
2022/10/01 06:21:31;;;;;;;;;;;;;;;28.40;35.19;101151.06;5078198;28;1146;-44
2022/10/01 06:23:57;;;;;;;;;;;;;;;28.43;35.15;101147.97;5078113;28;1130;-45
2022/10/01 06:26:22;;;;;;;;;;;;;;;28.44;34.79;101144.25;5077819;28;1087;-45
2022/10/01 06:28:49;;;;;;;;;;;;;;;28.44;35.31;101142.41;5078210;28;1221;-44
2022/10/01 06:31:14;;;;;;;;;;;;;;;28.43;35.35;101140.72;5078701;28;1174;-44
2022/10/01 06:33:39;;;;;;;;;;;;;;;28.46;34.76;101126.81;5071079;28;1910;-44
2022/10/01 06:36:05;;;;;;;;;;;;;;;28.34;35.29;101131.81;5071383;28;1159;-44
2022/10/01 06:38:30;;;;;;;;;;;;;;;28.33;35.48;101126.59;5078175;28;1127;-43
2022/10/01 06:40:56;;;;;;;;;;;;;;;28.30;35.46;101126.91;5078379;28;1209;-44
2022/10/01 06:43:22;;;;;;;;;;;;;;;28.38;35.16;101128.78;5075463;28;1205;-44
2022/10/01 06:45:47;;;;;;;;;;;;;;;28.38;35.13;101126.88;5066913;28;1132;-44
2022/10/01 06:48:13;;;;;;;;;;;;;;;28.55;35.17;101124.88;5063580;28;1255;-44
2022/10/01 06:50:38;;;;;;;;;;;;;;;28.49;34.81;101117.50;5074580;28;1060;-43
2022/10/01 06:53:04;;;;;;;;;;;;;;;28.46;35.14;101110.56;5078122;28;1898;-44
2022/10/01 06:55:30;;;;;;;;;;;;;;;28.48;35.06;101105.81;5077446;28;1221;-44
2022/10/01 06:58:02;;;;;;;;;;;;;;;28.47;35.20;101106.00;5078152;28;1142;-44
2022/10/01 07:00:28;;;;;;;;;;;;;;;28.43;35.11;101110.09;5078387;28;1366;-44
2022/10/01 07:02:54;;;;;;;;;;;;;;;28.59;34.91;101115.34;5077769;28;913;-43
2022/10/01 07:05:20;;;;;;;;;;;;;;;28.63;34.95;101121.25;5077642;28;1134;-43
2022/10/01 07:07:47;;;;;;;;;;;;;;;28.56;35.05;101114.91;5077670;28;1150;-43
2022/10/01 07:10:12;;;;;;;;;;;;;;;28.62;34.97;101113.31;5065258;28;1154;-45
2022/10/01 07:12:38;;;;;;;;;;;;;;;28.68;34.91;101108.00;5057835;28;1890;-44
2022/10/01 07:15:04;;;;;;;;;;;;;;;28.63;34.85;101109.59;5075438;28;952;-43
2022/10/01 07:17:30;;;;;;;;;;;;;;;28.70;34.63;101116.78;5077326;28;980;-44
2022/10/01 07:19:55;;;;;;;;;;;;;;;28.70;34.71;101107.81;5077809;28;1262;-43
2022/10/01 07:22:22;;;;;;;;;;;;;;;28.63;34.87;101112.31;5077322;28;1233;-44
2022/10/01 07:24:48;;;;;;;;;;;;;;;28.63;34.87;101110.41;5077212;28;1162;-44
2022/10/01 07:27:13;;;;;;;;;;;;;;;28.77;34.66;101116.03;5077103;28;1055;-41
2022/10/01 07:29:40;;;;;;;;;;;;;;;28.71;34.62;101114.94;5076869;28;1175;-43
2022/10/01 07:32:07;;;;;;;;;;;;;;;28.75;34.80;101118.06;5077394;28;1221;-41
2022/10/01 07:34:33;;;;;;;;;;;;;;;28.77;34.51;101121.44;5077385;28;1933;-42
2022/10/01 07:36:58;;;;;;;;;;;;;;;28.84;34.37;101117.81;5077143;28;1123;-42
2022/10/01 07:39:23;;;;;;;;;;;;;;;28.97;34.15;101116.34;5076791;28;1388;-42
2022/10/01 07:41:52;;;;;;;;;;;;;;;28.95;34.20;101121.94;5077466;28;1206;-42
2022/10/01 07:44:17;;;;;;;;;;;;;;;28.95;34.15;101118.38;5064545;28;1162;-41
2022/10/01 07:46:43;;;;;;;;;;;;;;;29.03;34.12;101109.38;5056736;28;1120;-44
2022/10/01 07:49:08;;;;;;;;;;;;;;;28.91;34.47;101115.19;5068362;28;1166;-44
2022/10/01 07:51:35;;;;;;;;;;;;;;;28.92;34.49;101114.19;5073544;28;935;-44
2022/10/01 07:54:01;;;;;;;;;;;;;;;28.92;34.47;101110.63;5067734;28;1974;-43
2022/10/01 07:56:26;;;;;;;;;;;;;;;29.00;34.26;101117.84;5057265;28;1124;-44
2022/10/01 07:58:55;;;;;;;;;;;;;;;28.97;34.44;101113.66;5076983;28;1170;-43
2022/10/01 08:01:20;;;;;;;;;;;;;;;29.07;34.09;101121.50;5063772;28;1170;-45
2022/10/01 08:03:48;;;;;;;;;;;;;;;28.99;34.44;101125.16;5076808;28;1221;-43
2022/10/01 08:06:14;;;;;;;;;;;;;;;29.02;34.39;101124.75;5076865;28;1182;-42
2022/10/01 08:08:39;;;;;;;;;;;;;;;28.91;34.50;101120.59;5076325;28;1226;-44
2022/10/01 08:11:06;;;;;;;;;;;;;;;28.81;34.60;101114.66;5071309;28;1144;-42
2022/10/01 08:13:32;;;;;;;;;;;;;;;28.96;34.55;101104.66;5067627;28;1901;-43
2022/10/01 08:15:58;;;;;;;;;;;;;;;29.02;34.14;101100.38;5076446;28;1127;-43
2022/10/01 08:18:23;;;;;;;;;;;;;;;28.96;34.16;101090.28;5076501;28;1237;-42
2022/10/01 08:20:48;;;;;;;;;;;;;;;28.96;33.98;101091.09;5076289;28;1230;-42
2022/10/01 08:23:14;;;;;;;;;;;;;;;29.06;33.99;101090.03;5076510;28;1111;-42
2022/10/01 08:25:40;;;;;;;;;;;;;;;28.99;33.82;101081.81;5076145;28;1266;-42
2022/10/01 08:28:06;;;;;;;;;;;;;;;29.09;33.85;101082.34;5058113;28;1088;-42
2022/10/01 08:30:31;;;;;;;;;;;;;;;29.08;33.69;101082.53;5076012;28;1154;-43
2022/10/01 08:32:57;;;;;;;;;;;;;;;29.13;33.84;101082.00;5076437;28;1977;-43
2022/10/01 08:35:22;;;;;;;;;;;;;;;29.02;33.91;101080.59;5076554;28;1142;-43
2022/10/01 08:37:48;;;;;;;;;;;;;;;29.09;33.67;101062.56;5056963;28;1217;-46
2022/10/01 08:40:13;;;;;;;;;;;;;;;28.98;33.60;101063.03;5076130;28;1091;-44
2022/10/01 08:42:38;;;;;;;;;;;;;;;29.21;33.45;101057.50;5075489;28;1198;-44
2022/10/01 08:45:05;;;;;;;;;;;;;;;29.25;33.11;101066.06;5076536;28;1110;-43
2022/10/01 08:47:32;;;;;;;;;;;;;;;29.13;33.19;101060.31;5057963;28;1147;-43
2022/10/01 08:49:59;;;;;;;;;;;;;;;28.95;33.35;101064.22;5073272;28;1119;-44
2022/10/01 08:52:25;;;;;;;;;;;;;;;29.01;33.33;101058.06;5065976;28;1890;-44
2022/10/01 08:54:54;;;;;;;;;;;;;;;29.07;33.34;101068.16;5055267;28;991;-43
2022/10/01 08:57:21;;;;;;;;;;;;;;;29.10;33.23;101069.66;5076597;28;1146;-43
2022/10/01 08:59:50;;;;;;;;;;;;;;;29.23;32.94;101071.69;5058473;28;1219;-44
2022/10/01 09:02:20;;;;;;;;;;;;;;;29.26;32.86;101079.41;5071480;28;1126;-44
2022/10/01 09:04:46;;;;;;;;;;;;;;;29.37;32.47;101071.84;5069623;28;1174;-43
2022/10/01 09:07:37;;;;;;;;;;;;;;;29.20;32.68;101066.63;5076297;28;1150;-43
2022/10/01 09:10:03;;;;;;;;;;;;;;;29.15;32.81;101056.38;5070859;28;1115;-45
2022/10/01 09:12:36;;;;;;;;;;;;;;;29.17;32.72;101045.34;5072547;28;1949;-41
2022/10/01 09:15:23;;;;;;;;;;;;;;;29.18;32.60;101039.75;5050921;28;1179;-42
2022/10/01 09:18:01;;;;;;;;;;;;;;;29.13;32.76;101049.47;5076386;28;1107;-41
2022/10/01 09:20:37;;;;;;;;;;;;;;;29.15;32.86;101048.25;5074494;28;1421;-42
2022/10/01 09:23:03;;;;;;;;;;;;;;;29.20;32.63;101047.69;5058198;28;1306;-40
2022/10/01 09:25:28;;;;;;;;;;;;;;;29.18;32.71;101041.59;5076109;28;1123;-40
2022/10/01 09:28:20;;;;;;;;;;;;;;;29.28;32.56;101035.91;5055160;28;1345;-40
2022/10/01 09:31:00;;;;;;;;;;;;;;;29.33;32.44;101033.44;5072020;28;2227;-40
2022/10/01 09:33:30;;;;;;;;;;;;;;;29.41;32.36;101033.31;5070908;28;1894;-41
2022/10/01 09:35:59;;;;;;;;;;;;;;;29.25;32.63;101031.69;5075642;28;1099;-40
2022/10/01 09:38:26;;;;;;;;;;;;;;;29.34;32.38;101027.81;5071944;28;1155;-39
2022/10/01 09:40:53;;;;;;;;;;;;;;;29.45;32.21;101034.63;5056075;28;1164;-40
2022/10/01 09:43:20;;;;;;;;;;;;;;;28.84;32.14;100939.09;5076233;28;1166;-39
2022/10/01 09:45:46;;;;;;;;;;;;;;;29.46;32.20;101044.44;5044023;28;1155;-39
2022/10/01 09:48:14;;;;;;;;;;;;;;;29.55;32.17;101036.16;5075650;28;1220;-40
2022/10/01 09:50:40;;;;;;;;;;;;;;;29.58;32.00;101043.91;5071282;28;1162;-40
2022/10/01 09:53:09;;;;;;;;;;;;;;;29.58;31.71;101049.34;5059136;28;1890;-40
2022/10/01 09:55:38;;;;;;;;;;;;;;;29.40;32.19;101044.34;5079430;28;1446;-39
2022/10/01 09:58:07;;;;;;;;;;;;;;;29.55;32.17;101045.16;5047210;28;1182;-37
2022/10/01 10:00:33;;;;;;;;;;;;;;;29.68;31.80;101049.91;5078625;28;1134;-37
2022/10/01 10:02:59;;;;;;;;;;;;;;;29.68;31.91;101041.75;5058800;28;1147;-40
2022/10/01 10:05:25;;;;;;;;;;;;;;;29.75;31.63;101043.69;5079043;28;1106;-39
2022/10/01 10:07:52;;;;;;;;;;;;;;;29.65;32.16;101046.72;5078455;28;1127;-39
2022/10/01 10:10:27;;;;;;;;;;;;;;;29.73;32.08;101032.22;5079374;28;1158;-39
2022/10/01 10:13:03;;;;;;;;;;;;;;;29.61;32.18;101031.91;5061096;28;1890;-37
2022/10/01 10:15:31;;;;;;;;;;;;;;;29.68;32.21;101025.50;5050519;28;1139;-38
2022/10/01 10:18:17;;;;;;;;;;;;;;;29.66;31.82;101021.31;5058597;28;1191;-39
2022/10/01 10:20:43;;;;;;;;;;;;;;;29.82;31.86;101022.91;5077713;28;1552;-37
2022/10/01 10:23:14;;;;;;;;;;;;;;;30.03;31.36;101004.94;5078781;28;1138;-37
2022/10/01 10:25:40;;;;;;;;;;;;;;;29.96;31.58;100994.03;5078987;28;1122;-36
2022/10/01 10:28:13;;;;;;;;;;;;;;;29.77;31.61;101003.69;5048224;28;1234;-36
2022/10/01 10:30:38;;;;;;;;;;;;;;;30.05;31.49;100992.00;5060515;28;1167;-37
2022/10/01 10:33:04;;;;;;;;;;;;;;;30.15;31.32;100997.94;5060354;28;1894;-39
2022/10/01 10:35:30;;;;;;;;;;;;;;;30.21;31.29;101004.47;5078593;28;1197;-40
2022/10/01 10:37:58;;;;;;;;;;;;;;;29.49;26.95;101008.00;5078528;28;1150;-39
2022/10/01 10:40:24;;;;;;;;;;;;;;;29.11;27.69;100995.50;5074419;28;891;-38
2022/10/01 10:42:50;;;;;;;;;;;;;;;29.55;29.24;100996.38;5060631;28;1166;-38
2022/10/01 10:45:19;;;;;;;;;;;;;;;29.60;30.69;100987.69;5078502;28;1190;-38
2022/10/01 10:47:53;;;;;;;;;;;;;;;28.66;32.69;100984.72;5078383;28;1150;-40
2022/10/01 10:50:35;;;;;;;;;;;;;;;29.37;31.41;100977.00;5060703;28;1111;-40
2022/10/01 10:53:11;;;;;;;;;;;;;;;29.53;31.21;100970.50;5076061;28;1953;-39
2022/10/01 10:55:38;;;;;;;;;;;;;;;30.19;30.42;100968.53;5078416;28;1155;-39
2022/10/01 10:58:15;;;;;;;;;;;;;;;30.31;30.20;100961.53;5060686;28;1166;-38
2022/10/01 11:00:45;;;;;;;;;;;;;;;30.05;30.80;100962.16;5077866;28;1146;-38
2022/10/01 11:03:10;;;;;;;;;;;;;;;29.65;31.42;100952.69;5073136;28;1111;-37
2022/10/01 11:05:39;;;;;;;;;;;;;;;29.96;30.60;100955.22;5054879;28;1220;-38
2022/10/01 11:08:05;;;;;;;;;;;;;;;30.13;30.38;100953.06;5077892;28;1213;-38
2022/10/01 11:10:30;;;;;;;;;;;;;;;30.10;30.23;100948.00;5070795;28;1193;-37
2022/10/01 11:13:06;;;;;;;;;;;;;;;29.78;30.57;100924.84;5077636;28;1961;-37
2022/10/01 11:15:46;;;;;;;;;;;;;;;29.85;30.21;100916.75;5070964;28;1193;-37
2022/10/01 11:18:47;;;;;;;;;;;;;;;29.58;30.80;100909.22;5065664;28;1178;-36
2022/10/01 11:21:25;;;;;;;;;;;;;;;30.08;28.40;100909.41;4996192;28;1521;-37
2022/10/01 11:23:50;;;;;;;;;;;;;;;29.18;26.60;100893.47;5049325;28;1233;-36
2022/10/01 11:26:22;;;;;;;;;;;;;;;28.88;26.86;100892.72;5077272;28;1177;-37
2022/10/01 11:28:54;;;;;;;;;;;;;;;28.80;26.80;100893.66;5059733;28;929;-38
2022/10/01 11:31:30;;;;;;;;;;;;;;;29.21;27.79;100879.53;5077313;28;1119;-37
2022/10/01 11:34:00;;;;;;;;;;;;;;;29.32;28.30;100880.03;5059368;28;1910;-38
2022/10/01 11:36:34;;;;;;;;;;;;;;;28.98;26.72;100885.13;5059478;28;1199;-37
2022/10/01 11:39:04;;;;;;;;;;;;;;;28.73;27.12;100878.19;5076821;28;1098;-38
2022/10/01 11:41:30;;;;;;;;;;;;;;;29.48;26.98;100872.69;5057326;28;1127;-37
2022/10/01 11:43:56;;;;;;;;;;;;;;;30.09;26.27;100854.09;5076972;28;1134;-38
2022/10/01 11:46:30;;;;;;;;;;;;;;;30.38;25.85;100849.47;5077091;28;1138;-37
2022/10/01 11:49:07;;;;;;;;;;;;;;;30.60;25.76;100836.59;5076931;28;1162;-37
2022/10/01 11:51:43;;;;;;;;;;;;;;;30.73;25.89;100838.47;5057356;28;1190;-37
2022/10/01 11:54:10;;;;;;;;;;;;;;;29.95;27.48;100845.91;5076900;28;1894;-37
2022/10/01 11:59:35;;;;;;;;;;;;;;;29.11;29.51;100868.19;5061527;28;1131;-37
2022/10/01 12:02:15;;;;;;;;;;;;;;;28.99;29.65;100884.13;5077339;28;1150;-37
2022/10/01 12:04:40;;;;;;;;;;;;;;;29.16;29.91;100878.44;5076223;28;898;-39
2022/10/01 12:07:06;;;;;;;;;;;;;;;28.85;30.23;100870.41;5076802;28;1226;-39
2022/10/01 12:09:40;;;;;;;;;;;;;;;28.68;30.56;100863.53;5076911;28;1099;-39
2022/10/01 12:12:06;;;;;;;;;;;;;;;28.57;30.41;100863.03;5076883;28;1201;-38
2022/10/01 12:14:44;;;;;;;;;;;;;;;28.50;30.74;100870.22;5052716;28;1902;-39
2022/10/01 12:17:11;;;;;;;;;;;;;;;28.44;30.78;100870.97;5069240;28;888;-39
2022/10/01 12:19:36;;;;;;;;;;;;;;;28.44;30.70;100873.69;5076749;28;1158;-39
2022/10/01 12:22:07;;;;;;;;;;;;;;;28.50;30.67;100867.50;5058337;28;1524;-39
2022/10/01 12:24:34;;;;;;;;;;;;;;;28.47;30.56;100859.78;5058584;28;1135;-39
2022/10/01 12:27:22;;;;;;;;;;;;;;;28.70;30.67;100861.47;5058551;28;1143;-37
2022/10/01 12:29:57;;;;;;;;;;;;;;;28.62;30.83;100856.19;5075881;28;1300;-37
2022/10/01 12:32:41;;;;;;;;;;;;;;;28.60;30.85;100851.81;5058725;28;1959;-36
2022/10/01 12:35:07;;;;;;;;;;;;;;;28.76;30.85;100844.47;5063478;28;1123;-39
2022/10/01 12:37:36;;;;;;;;;;;;;;;28.56;30.79;100844.28;5069918;28;1344;-40
2022/10/01 12:40:20;;;;;;;;;;;;;;;28.48;31.12;100835.22;5071086;28;1146;-41
2022/10/01 12:43:04;;;;;;;;;;;;;;;28.46;30.81;100831.06;5064386;28;1124;-40
2022/10/01 12:45:42;;;;;;;;;;;;;;;28.50;31.00;100823.38;5076239;28;1229;-36
2022/10/01 12:48:07;;;;;;;;;;;;;;;28.38;31.36;100826.56;5058684;28;1158;-40
2022/10/01 12:50:34;;;;;;;;;;;;;;;28.31;31.43;100825.63;5075856;28;1205;-37
2022/10/01 12:53:16;;;;;;;;;;;;;;;28.31;31.15;100820.22;5072110;28;1965;-37
2022/10/01 12:55:44;;;;;;;;;;;;;;;28.15;31.39;100821.25;5075857;28;1170;-37